Terminal Aerodrome Forecast
Issued by NWS

Home | Current Version | Previous Version | Text Only | Print | Product List | Glossary On
Versions: 1 2 3 4 5 6 7 8 9 10 11 12 13 14 15 16 17 18 19
000
FTUS46 KMTR 231130 CCA
TAFMRY
TAF COR
KMRY 231130Z 2312/2412 22004KT P6SM SCT005
      TEMPO 2312/2315 BKN004
     FM231600 25005KT P6SM SKC
     FM231800 28006KT P6SM SKC
     FM232000 28008KT P6SM SKC
     FM240400 22004KT P6SM SKC
     FM240700 VRB03KT P6SM BKN004=

USA.gov is the U.S. government's official web portal to all federal, state and local government web resources and services.